sensor_id;sensor_type;location;lat;lon;timestamp;temperature;humidity
81488;DHT22;70897;52.464;13.428;2023-11-18T00:00:26;5.60;99.90
81488;DHT22;70897;52.464;13.428;2023-11-18T00:03:11;5.60;99.90
81488;DHT22;70897;52.464;13.428;2023-11-18T00:05:56;5.60;99.90
81488;DHT22;70897;52.464;13.428;2023-11-18T00:08:41;5.60;99.90
81488;DHT22;70897;52.464;13.428;2023-11-18T00:11:27;5.60;99.90
81488;DHT22;70897;52.464;13.428;2023-11-18T00:14:12;5.60;99.90
81488;DHT22;70897;52.464;13.428;2023-11-18T00:16:58;5.60;99.90
81488;DHT22;70897;52.464;13.428;2023-11-18T00:19:44;5.60;99.90
81488;DHT22;70897;52.464;13.428;2023-11-18T00:22:29;5.60;99.90
81488;DHT22;70897;52.464;13.428;2023-11-18T00:25:14;5.60;99.90
81488;DHT22;70897;52.464;13.428;2023-11-18T00:27:59;5.50;99.90
81488;DHT22;70897;52.464;13.428;2023-11-18T00:30:44;5.50;99.90
81488;DHT22;70897;52.464;13.428;2023-11-18T00:33:29;5.50;99.90
81488;DHT22;70897;52.464;13.428;2023-11-18T00:36:14;5.50;99.90
81488;DHT22;70897;52.464;13.428;2023-11-18T00:38:59;5.50;99.90
81488;DHT22;70897;52.464;13.428;2023-11-18T00:41:44;5.50;99.90
81488;DHT22;70897;52.464;13.428;2023-11-18T00:44:29;5.50;99.90
81488;DHT22;70897;52.464;13.428;2023-11-18T00:47:14;5.50;99.90
81488;DHT22;70897;52.464;13.428;2023-11-18T00:50:00;5.50;99.90
81488;DHT22;70897;52.464;13.428;2023-11-18T00:52:47;5.50;99.90
81488;DHT22;70897;52.464;13.428;2023-11-18T00:55:33;5.60;99.90
81488;DHT22;70897;52.464;13.428;2023-11-18T00:58:18;5.60;99.90
81488;DHT22;70897;52.464;13.428;2023-11-18T01:01:03;5.60;99.90
81488;DHT22;70897;52.464;13.428;2023-11-18T01:03:48;5.50;99.90
81488;DHT22;70897;52.464;13.428;2023-11-18T01:06:33;5.60;99.90
81488;DHT22;70897;52.464;13.428;2023-11-18T01:09:19;5.50;99.90
81488;DHT22;70897;52.464;13.428;2023-11-18T01:12:05;5.50;99.90
81488;DHT22;70897;52.464;13.428;2023-11-18T01:14:54;5.60;99.90
81488;DHT22;70897;52.464;13.428;2023-11-18T01:17:39;5.50;99.90
81488;DHT22;70897;52.464;13.428;2023-11-18T01:20:24;5.50;99.90
81488;DHT22;70897;52.464;13.428;2023-11-18T01:23:09;5.60;99.90
81488;DHT22;70897;52.464;13.428;2023-11-18T01:25:54;5.50;99.90
81488;DHT22;70897;52.464;13.428;2023-11-18T01:28:40;5.50;99.90
81488;DHT22;70897;52.464;13.428;2023-11-18T01:31:29;5.50;99.90
81488;DHT22;70897;52.464;13.428;2023-11-18T01:34:14;5.60;99.90
81488;DHT22;70897;52.464;13.428;2023-11-18T01:36:59;5.50;99.90
81488;DHT22;70897;52.464;13.428;2023-11-18T01:39:45;5.50;99.90
81488;DHT22;70897;52.464;13.428;2023-11-18T01:42:31;5.50;99.90
81488;DHT22;70897;52.464;13.428;2023-11-18T01:45:16;5.50;99.90
81488;DHT22;70897;52.464;13.428;2023-11-18T01:48:04;5.60;99.90
81488;DHT22;70897;52.464;13.428;2023-11-18T01:50:50;5.60;99.90
81488;DHT22;70897;52.464;13.428;2023-11-18T01:53:39;5.60;99.90
81488;DHT22;70897;52.464;13.428;2023-11-18T01:56:27;5.60;99.90
81488;DHT22;70897;52.464;13.428;2023-11-18T01:59:13;5.60;99.90
81488;DHT22;70897;52.464;13.428;2023-11-18T02:02:05;5.50;99.90
81488;DHT22;70897;52.464;13.428;2023-11-18T02:04:50;5.50;99.90
81488;DHT22;70897;52.464;13.428;2023-11-18T02:07:35;5.50;99.90
81488;DHT22;70897;52.464;13.428;2023-11-18T02:10:22;5.50;99.90
81488;DHT22;70897;52.464;13.428;2023-11-18T02:13:14;5.50;99.90
81488;DHT22;70897;52.464;13.428;2023-11-18T02:16:04;5.50;99.90
81488;DHT22;70897;52.464;13.428;2023-11-18T02:18:51;5.40;99.90
81488;DHT22;70897;52.464;13.428;2023-11-18T02:21:38;5.40;99.90
81488;DHT22;70897;52.464;13.428;2023-11-18T02:24:27;5.40;99.90
81488;DHT22;70897;52.464;13.428;2023-11-18T02:27:16;5.50;99.90
81488;DHT22;70897;52.464;13.428;2023-11-18T02:30:05;5.40;99.90
81488;DHT22;70897;52.464;13.428;2023-11-18T02:33:07;5.50;99.90
81488;DHT22;70897;52.464;13.428;2023-11-18T02:36:05;5.50;99.90
81488;DHT22;70897;52.464;13.428;2023-11-18T02:38:51;5.50;99.90
81488;DHT22;70897;52.464;13.428;2023-11-18T02:41:40;5.50;99.90
81488;DHT22;70897;52.464;13.428;2023-11-18T02:44:27;5.50;99.90
81488;DHT22;70897;52.464;13.428;2023-11-18T02:47:14;5.50;99.90
81488;DHT22;70897;52.464;13.428;2023-11-18T02:50:01;5.50;99.90
81488;DHT22;70897;52.464;13.428;2023-11-18T02:52:55;5.40;99.90
81488;DHT22;70897;52.464;13.428;2023-11-18T02:55:40;5.40;99.90
81488;DHT22;70897;52.464;13.428;2023-11-18T02:58:25;5.40;99.90
81488;DHT22;70897;52.464;13.428;2023-11-18T03:01:11;5.30;99.90
81488;DHT22;70897;52.464;13.428;2023-11-18T03:03:56;5.40;99.90
81488;DHT22;70897;52.464;13.428;2023-11-18T03:06:41;5.40;99.90
81488;DHT22;70897;52.464;13.428;2023-11-18T03:09:26;5.40;99.90
81488;DHT22;70897;52.464;13.428;2023-11-18T03:12:12;5.40;99.90
81488;DHT22;70897;52.464;13.428;2023-11-18T03:14:58;5.50;99.90
81488;DHT22;70897;52.464;13.428;2023-11-18T03:17:46;5.50;99.90
81488;DHT22;70897;52.464;13.428;2023-11-18T03:20:33;5.50;99.90
81488;DHT22;70897;52.464;13.428;2023-11-18T03:23:18;5.50;99.90
81488;DHT22;70897;52.464;13.428;2023-11-18T03:26:03;5.50;99.90
81488;DHT22;70897;52.464;13.428;2023-11-18T03:28:50;5.50;99.90
81488;DHT22;70897;52.464;13.428;2023-11-18T03:31:35;5.40;99.90
81488;DHT22;70897;52.464;13.428;2023-11-18T03:34:20;5.40;99.90
81488;DHT22;70897;52.464;13.428;2023-11-18T03:37:05;5.40;99.90
81488;DHT22;70897;52.464;13.428;2023-11-18T03:39:50;5.40;99.90
81488;DHT22;70897;52.464;13.428;2023-11-18T03:42:35;5.40;99.90
81488;DHT22;70897;52.464;13.428;2023-11-18T03:45:22;5.30;99.90
81488;DHT22;70897;52.464;13.428;2023-11-18T03:48:07;5.30;99.90
81488;DHT22;70897;52.464;13.428;2023-11-18T03:50:52;5.30;99.90
81488;DHT22;70897;52.464;13.428;2023-11-18T03:53:38;5.30;99.90
81488;DHT22;70897;52.464;13.428;2023-11-18T03:56:24;5.30;99.90
81488;DHT22;70897;52.464;13.428;2023-11-18T03:59:12;5.30;99.90
81488;DHT22;70897;52.464;13.428;2023-11-18T04:01:57;5.30;99.90
81488;DHT22;70897;52.464;13.428;2023-11-18T04:04:42;5.30;99.90
81488;DHT22;70897;52.464;13.428;2023-11-18T04:07:27;5.30;99.90
81488;DHT22;70897;52.464;13.428;2023-11-18T04:10:13;5.30;99.90
81488;DHT22;70897;52.464;13.428;2023-11-18T04:12:59;5.20;99.90
81488;DHT22;70897;52.464;13.428;2023-11-18T04:15:44;5.30;99.90
81488;DHT22;70897;52.464;13.428;2023-11-18T04:18:30;5.30;99.90
81488;DHT22;70897;52.464;13.428;2023-11-18T04:21:16;5.30;99.90
81488;DHT22;70897;52.464;13.428;2023-11-18T04:24:01;5.30;99.90
81488;DHT22;70897;52.464;13.428;2023-11-18T04:26:46;5.30;99.90
81488;DHT22;70897;52.464;13.428;2023-11-18T04:29:32;5.30;99.90
81488;DHT22;70897;52.464;13.428;2023-11-18T04:32:17;5.40;99.90
81488;DHT22;70897;52.464;13.428;2023-11-18T04:35:03;5.40;99.90
81488;DHT22;70897;52.464;13.428;2023-11-18T04:37:53;5.40;99.90
81488;DHT22;70897;52.464;13.428;2023-11-18T04:40:38;5.40;99.90
81488;DHT22;70897;52.464;13.428;2023-11-18T04:43:25;5.40;99.90
81488;DHT22;70897;52.464;13.428;2023-11-18T04:46:11;5.30;99.90
81488;DHT22;70897;52.464;13.428;2023-11-18T04:48:57;5.40;99.90
81488;DHT22;70897;52.464;13.428;2023-11-18T04:51:42;5.30;99.90
81488;DHT22;70897;52.464;13.428;2023-11-18T04:54:27;5.40;99.90
81488;DHT22;70897;52.464;13.428;2023-11-18T04:57:12;5.40;99.90
81488;DHT22;70897;52.464;13.428;2023-11-18T04:59:57;5.30;99.90
81488;DHT22;70897;52.464;13.428;2023-11-18T05:02:43;5.30;99.90
81488;DHT22;70897;52.464;13.428;2023-11-18T05:05:29;5.30;99.90
81488;DHT22;70897;52.464;13.428;2023-11-18T05:08:20;5.30;99.90
81488;DHT22;70897;52.464;13.428;2023-11-18T05:11:05;5.30;99.90
81488;DHT22;70897;52.464;13.428;2023-11-18T05:13:50;5.30;99.90
81488;DHT22;70897;52.464;13.428;2023-11-18T05:16:35;5.30;99.90
81488;DHT22;70897;52.464;13.428;2023-11-18T05:19:20;5.30;99.90
81488;DHT22;70897;52.464;13.428;2023-11-18T05:22:06;5.30;99.90
81488;DHT22;70897;52.464;13.428;2023-11-18T05:24:51;5.30;99.90
81488;DHT22;70897;52.464;13.428;2023-11-18T05:27:36;5.30;99.90
81488;DHT22;70897;52.464;13.428;2023-11-18T05:30:21;5.30;99.90
81488;DHT22;70897;52.464;13.428;2023-11-18T05:33:07;5.30;99.90
81488;DHT22;70897;52.464;13.428;2023-11-18T05:35:54;5.30;99.90
81488;DHT22;70897;52.464;13.428;2023-11-18T05:38:39;5.30;99.90
81488;DHT22;70897;52.464;13.428;2023-11-18T05:41:24;5.30;99.90
81488;DHT22;70897;52.464;13.428;2023-11-18T05:44:12;5.30;99.90
81488;DHT22;70897;52.464;13.428;2023-11-18T05:47:02;5.30;99.90
81488;DHT22;70897;52.464;13.428;2023-11-18T05:49:47;5.30;99.90
81488;DHT22;70897;52.464;13.428;2023-11-18T05:52:33;5.30;99.90
81488;DHT22;70897;52.464;13.428;2023-11-18T05:55:19;5.30;99.90
81488;DHT22;70897;52.464;13.428;2023-11-18T05:58:04;5.30;99.90
81488;DHT22;70897;52.464;13.428;2023-11-18T06:00:49;5.30;99.90
81488;DHT22;70897;52.464;13.428;2023-11-18T06:03:35;5.40;99.90
81488;DHT22;70897;52.464;13.428;2023-11-18T06:06:25;5.40;99.90
81488;DHT22;70897;52.464;13.428;2023-11-18T06:09:10;5.40;99.90
81488;DHT22;70897;52.464;13.428;2023-11-18T06:12:05;5.30;99.90
81488;DHT22;70897;52.464;13.428;2023-11-18T06:14:53;5.40;99.90
81488;DHT22;70897;52.464;13.428;2023-11-18T06:17:38;5.40;99.90
81488;DHT22;70897;52.464;13.428;2023-11-18T06:20:24;5.40;99.90
81488;DHT22;70897;52.464;13.428;2023-11-18T06:23:09;5.40;99.90
81488;DHT22;70897;52.464;13.428;2023-11-18T06:25:55;5.40;99.90
81488;DHT22;70897;52.464;13.428;2023-11-18T06:28:45;5.40;99.90
81488;DHT22;70897;52.464;13.428;2023-11-18T06:31:30;5.30;99.90
81488;DHT22;70897;52.464;13.428;2023-11-18T06:34:15;5.40;99.90
81488;DHT22;70897;52.464;13.428;2023-11-18T06:37:01;5.40;99.90
81488;DHT22;70897;52.464;13.428;2023-11-18T06:39:46;5.40;99.90
81488;DHT22;70897;52.464;13.428;2023-11-18T06:42:33;5.40;99.90
81488;DHT22;70897;52.464;13.428;2023-11-18T06:45:18;5.40;99.90
81488;DHT22;70897;52.464;13.428;2023-11-18T06:48:04;5.40;99.90
81488;DHT22;70897;52.464;13.428;2023-11-18T06:50:50;5.40;99.90
81488;DHT22;70897;52.464;13.428;2023-11-18T06:53:35;5.30;99.90
81488;DHT22;70897;52.464;13.428;2023-11-18T06:56:20;5.40;99.90
81488;DHT22;70897;52.464;13.428;2023-11-18T06:59:06;5.40;99.90
81488;DHT22;70897;52.464;13.428;2023-11-18T07:01:56;5.40;99.90
81488;DHT22;70897;52.464;13.428;2023-11-18T07:04:41;5.30;99.90
81488;DHT22;70897;52.464;13.428;2023-11-18T07:07:26;5.40;99.90
81488;DHT22;70897;52.464;13.428;2023-11-18T07:10:12;5.40;99.90
81488;DHT22;70897;52.464;13.428;2023-11-18T07:12:58;5.50;99.90
81488;DHT22;70897;52.464;13.428;2023-11-18T07:15:44;5.60;99.90
81488;DHT22;70897;52.464;13.428;2023-11-18T07:18:29;5.60;99.90
81488;DHT22;70897;52.464;13.428;2023-11-18T07:21:18;5.70;99.90
81488;DHT22;70897;52.464;13.428;2023-11-18T07:24:03;5.80;99.90
81488;DHT22;70897;52.464;13.428;2023-11-18T07:26:48;5.80;99.90
81488;DHT22;70897;52.464;13.428;2023-11-18T07:29:35;5.80;99.90
81488;DHT22;70897;52.464;13.428;2023-11-18T07:32:20;5.90;99.90
81488;DHT22;70897;52.464;13.428;2023-11-18T07:35:06;6.00;99.90
81488;DHT22;70897;52.464;13.428;2023-11-18T07:37:54;6.00;99.90
81488;DHT22;70897;52.464;13.428;2023-11-18T07:40:39;6.00;99.90
81488;DHT22;70897;52.464;13.428;2023-11-18T07:43:30;6.10;99.90
81488;DHT22;70897;52.464;13.428;2023-11-18T07:46:15;6.10;99.90
81488;DHT22;70897;52.464;13.428;2023-11-18T07:49:00;6.00;99.90
81488;DHT22;70897;52.464;13.428;2023-11-18T07:51:46;6.00;99.90
81488;DHT22;70897;52.464;13.428;2023-11-18T07:54:31;6.00;99.90
81488;DHT22;70897;52.464;13.428;2023-11-18T07:57:16;6.10;99.90
81488;DHT22;70897;52.464;13.428;2023-11-18T08:00:01;6.00;99.90
81488;DHT22;70897;52.464;13.428;2023-11-18T08:02:58;6.00;99.90
81488;DHT22;70897;52.464;13.428;2023-11-18T08:05:45;6.00;99.90
81488;DHT22;70897;52.464;13.428;2023-11-18T08:08:30;5.90;99.90
81488;DHT22;70897;52.464;13.428;2023-11-18T08:11:15;5.90;99.90
81488;DHT22;70897;52.464;13.428;2023-11-18T08:14:00;6.00;99.90
81488;DHT22;70897;52.464;13.428;2023-11-18T08:16:47;6.10;99.90
81488;DHT22;70897;52.464;13.428;2023-11-18T08:19:32;6.10;99.90
81488;DHT22;70897;52.464;13.428;2023-11-18T08:22:19;6.10;99.90
81488;DHT22;70897;52.464;13.428;2023-11-18T08:25:04;6.10;99.90
81488;DHT22;70897;52.464;13.428;2023-11-18T08:27:53;6.20;99.90
81488;DHT22;70897;52.464;13.428;2023-11-18T08:30:38;6.20;99.90
81488;DHT22;70897;52.464;13.428;2023-11-18T08:33:24;6.20;99.90
81488;DHT22;70897;52.464;13.428;2023-11-18T08:36:10;6.20;99.90
81488;DHT22;70897;52.464;13.428;2023-11-18T08:38:57;6.20;99.90
81488;DHT22;70897;52.464;13.428;2023-11-18T08:41:42;6.20;99.90
81488;DHT22;70897;52.464;13.428;2023-11-18T08:44:28;6.30;99.90
81488;DHT22;70897;52.464;13.428;2023-11-18T08:47:13;6.30;99.90
81488;DHT22;70897;52.464;13.428;2023-11-18T08:50:00;6.40;99.90
81488;DHT22;70897;52.464;13.428;2023-11-18T08:52:56;6.40;99.90
81488;DHT22;70897;52.464;13.428;2023-11-18T08:55:44;6.50;99.90
81488;DHT22;70897;52.464;13.428;2023-11-18T08:58:35;6.60;99.90
81488;DHT22;70897;52.464;13.428;2023-11-18T09:01:23;6.70;99.90
81488;DHT22;70897;52.464;13.428;2023-11-18T09:04:13;6.70;99.90
81488;DHT22;70897;52.464;13.428;2023-11-18T09:06:59;6.80;99.90
81488;DHT22;70897;52.464;13.428;2023-11-18T09:09:44;6.80;99.90
81488;DHT22;70897;52.464;13.428;2023-11-18T09:12:29;6.80;99.90
81488;DHT22;70897;52.464;13.428;2023-11-18T09:15:14;6.80;99.90
81488;DHT22;70897;52.464;13.428;2023-11-18T09:18:07;6.80;99.90
81488;DHT22;70897;52.464;13.428;2023-11-18T09:20:55;6.90;99.90
81488;DHT22;70897;52.464;13.428;2023-11-18T09:23:41;7.00;99.90
81488;DHT22;70897;52.464;13.428;2023-11-18T09:26:26;7.00;99.90
81488;DHT22;70897;52.464;13.428;2023-11-18T09:29:14;7.10;99.90
81488;DHT22;70897;52.464;13.428;2023-11-18T09:32:02;7.10;99.90
81488;DHT22;70897;52.464;13.428;2023-11-18T09:34:50;7.10;99.90
81488;DHT22;70897;52.464;13.428;2023-11-18T09:37:37;7.10;99.90
81488;DHT22;70897;52.464;13.428;2023-11-18T09:40:25;7.10;99.90
81488;DHT22;70897;52.464;13.428;2023-11-18T09:43:14;7.10;99.90
81488;DHT22;70897;52.464;13.428;2023-11-18T09:46:07;7.10;99.90
81488;DHT22;70897;52.464;13.428;2023-11-18T09:49:17;7.10;99.90
81488;DHT22;70897;52.464;13.428;2023-11-18T09:52:04;7.20;99.90
81488;DHT22;70897;52.464;13.428;2023-11-18T09:55:02;7.10;99.90
81488;DHT22;70897;52.464;13.428;2023-11-18T09:57:51;7.10;99.90
81488;DHT22;70897;52.464;13.428;2023-11-18T10:00:42;7.10;99.90
81488;DHT22;70897;52.464;13.428;2023-11-18T10:03:27;7.10;99.90
81488;DHT22;70897;52.464;13.428;2023-11-18T10:06:14;7.20;99.90
81488;DHT22;70897;52.464;13.428;2023-11-18T10:09:02;7.20;99.90
81488;DHT22;70897;52.464;13.428;2023-11-18T10:12:00;7.20;99.90
81488;DHT22;70897;52.464;13.428;2023-11-18T10:14:50;7.40;99.90
81488;DHT22;70897;52.464;13.428;2023-11-18T10:17:43;7.50;99.90
81488;DHT22;70897;52.464;13.428;2023-11-18T10:20:49;7.50;99.90
81488;DHT22;70897;52.464;13.428;2023-11-18T10:23:37;7.60;99.90
81488;DHT22;70897;52.464;13.428;2023-11-18T10:26:25;7.50;99.90
81488;DHT22;70897;52.464;13.428;2023-11-18T10:29:09;7.50;99.90
81488;DHT22;70897;52.464;13.428;2023-11-18T10:32:07;7.50;99.90
81488;DHT22;70897;52.464;13.428;2023-11-18T10:34:57;7.60;99.90
81488;DHT22;70897;52.464;13.428;2023-11-18T10:37:42;7.40;99.90
81488;DHT22;70897;52.464;13.428;2023-11-18T10:40:28;7.30;99.90
81488;DHT22;70897;52.464;13.428;2023-11-18T10:43:13;7.30;99.90
81488;DHT22;70897;52.464;13.428;2023-11-18T10:46:17;7.20;99.90
81488;DHT22;70897;52.464;13.428;2023-11-18T10:49:01;7.20;99.90
81488;DHT22;70897;52.464;13.428;2023-11-18T10:51:47;7.10;99.90
81488;DHT22;70897;52.464;13.428;2023-11-18T10:54:33;7.00;99.90
81488;DHT22;70897;52.464;13.428;2023-11-18T10:57:19;6.90;99.90
81488;DHT22;70897;52.464;13.428;2023-11-18T11:00:05;6.90;99.90
81488;DHT22;70897;52.464;13.428;2023-11-18T11:02:58;6.80;99.90
81488;DHT22;70897;52.464;13.428;2023-11-18T11:05:44;6.80;99.90
81488;DHT22;70897;52.464;13.428;2023-11-18T11:08:29;6.80;99.90
81488;DHT22;70897;52.464;13.428;2023-11-18T11:11:20;6.80;99.90
81488;DHT22;70897;52.464;13.428;2023-11-18T11:14:06;6.80;99.90
81488;DHT22;70897;52.464;13.428;2023-11-18T11:16:54;6.80;99.90
81488;DHT22;70897;52.464;13.428;2023-11-18T11:19:50;6.90;99.90
81488;DHT22;70897;52.464;13.428;2023-11-18T11:23:01;6.90;99.90
81488;DHT22;70897;52.464;13.428;2023-11-18T11:26:02;6.80;99.90
81488;DHT22;70897;52.464;13.428;2023-11-18T11:29:15;6.80;99.90
81488;DHT22;70897;52.464;13.428;2023-11-18T11:35:01;7.00;99.90
81488;DHT22;70897;52.464;13.428;2023-11-18T11:37:53;7.10;99.90
81488;DHT22;70897;52.464;13.428;2023-11-18T11:40:41;7.10;99.90
81488;DHT22;70897;52.464;13.428;2023-11-18T11:43:26;7.20;99.90
81488;DHT22;70897;52.464;13.428;2023-11-18T11:46:13;7.20;99.90
81488;DHT22;70897;52.464;13.428;2023-11-18T11:49:00;7.10;99.90
81488;DHT22;70897;52.464;13.428;2023-11-18T11:51:57;7.20;99.90
81488;DHT22;70897;52.464;13.428;2023-11-18T11:54:52;7.00;99.90
81488;DHT22;70897;52.464;13.428;2023-11-18T11:57:41;6.80;99.90
81488;DHT22;70897;52.464;13.428;2023-11-18T12:00:30;6.90;99.90
81488;DHT22;70897;52.464;13.428;2023-11-18T12:03:21;6.90;99.90
81488;DHT22;70897;52.464;13.428;2023-11-18T12:06:07;6.90;99.90
81488;DHT22;70897;52.464;13.428;2023-11-18T12:08:53;7.00;99.90
81488;DHT22;70897;52.464;13.428;2023-11-18T12:11:38;7.20;99.90
81488;DHT22;70897;52.464;13.428;2023-11-18T12:14:30;7.30;99.90
81488;DHT22;70897;52.464;13.428;2023-11-18T12:17:23;7.90;99.90
81488;DHT22;70897;52.464;13.428;2023-11-18T12:23:29;10.50;97.80
81488;DHT22;70897;52.464;13.428;2023-11-18T12:26:38;14.20;83.40
81488;DHT22;70897;52.464;13.428;2023-11-18T12:29:32;17.50;59.30
81488;DHT22;70897;52.464;13.428;2023-11-18T12:42:52;15.40;55.50
81488;DHT22;70897;52.464;13.428;2023-11-18T12:45:50;13.30;63.80
81488;DHT22;70897;52.464;13.428;2023-11-18T12:48:45;11.70;69.70
81488;DHT22;70897;52.464;13.428;2023-11-18T12:51:33;11.30;74.10
81488;DHT22;70897;52.464;13.428;2023-11-18T12:54:23;10.90;78.70
81488;DHT22;70897;52.464;13.428;2023-11-18T12:57:12;10.50;82.00
81488;DHT22;70897;52.464;13.428;2023-11-18T13:00:00;10.00;85.80
81488;DHT22;70897;52.464;13.428;2023-11-18T13:02:49;9.60;88.40
81488;DHT22;70897;52.464;13.428;2023-11-18T13:05:34;9.00;91.60
81488;DHT22;70897;52.464;13.428;2023-11-18T13:08:19;8.60;93.20
81488;DHT22;70897;52.464;13.428;2023-11-18T13:11:07;8.30;93.90
81488;DHT22;70897;52.464;13.428;2023-11-18T13:13:57;8.20;95.10
81488;DHT22;70897;52.464;13.428;2023-11-18T13:16:43;8.00;96.30
81488;DHT22;70897;52.464;13.428;2023-11-18T13:19:31;8.00;96.30
81488;DHT22;70897;52.464;13.428;2023-11-18T13:22:18;7.80;97.80
81488;DHT22;70897;52.464;13.428;2023-11-18T13:25:04;7.70;98.00
81488;DHT22;70897;52.464;13.428;2023-11-18T13:27:50;7.60;99.60
81488;DHT22;70897;52.464;13.428;2023-11-18T13:30:35;7.50;99.70
81488;DHT22;70897;52.464;13.428;2023-11-18T13:33:21;7.30;99.80
81488;DHT22;70897;52.464;13.428;2023-11-18T13:36:07;7.10;99.90
81488;DHT22;70897;52.464;13.428;2023-11-18T13:38:55;6.90;99.90
81488;DHT22;70897;52.464;13.428;2023-11-18T13:41:40;6.80;99.90
81488;DHT22;70897;52.464;13.428;2023-11-18T13:44:35;6.70;99.90
81488;DHT22;70897;52.464;13.428;2023-11-18T13:47:22;6.60;99.90
81488;DHT22;70897;52.464;13.428;2023-11-18T13:50:08;6.40;99.90
81488;DHT22;70897;52.464;13.428;2023-11-18T13:52:53;6.30;99.90
81488;DHT22;70897;52.464;13.428;2023-11-18T13:55:38;6.10;99.90
81488;DHT22;70897;52.464;13.428;2023-11-18T13:58:23;5.90;99.90
81488;DHT22;70897;52.464;13.428;2023-11-18T14:01:11;5.80;99.90
81488;DHT22;70897;52.464;13.428;2023-11-18T14:03:56;5.60;99.90
81488;DHT22;70897;52.464;13.428;2023-11-18T14:06:53;5.50;99.90
81488;DHT22;70897;52.464;13.428;2023-11-18T14:09:41;5.30;99.90
81488;DHT22;70897;52.464;13.428;2023-11-18T14:12:26;5.20;99.90
81488;DHT22;70897;52.464;13.428;2023-11-18T14:15:12;5.00;99.90
81488;DHT22;70897;52.464;13.428;2023-11-18T14:18:04;4.90;99.90
81488;DHT22;70897;52.464;13.428;2023-11-18T14:20:52;4.80;99.90
81488;DHT22;70897;52.464;13.428;2023-11-18T14:23:37;4.70;99.90
81488;DHT22;70897;52.464;13.428;2023-11-18T14:26:22;4.60;99.90
81488;DHT22;70897;52.464;13.428;2023-11-18T14:29:07;4.60;99.90
81488;DHT22;70897;52.464;13.428;2023-11-18T14:31:53;4.50;99.90
81488;DHT22;70897;52.464;13.428;2023-11-18T14:34:38;4.50;99.90
81488;DHT22;70897;52.464;13.428;2023-11-18T14:37:23;4.50;99.90
81488;DHT22;70897;52.464;13.428;2023-11-18T14:40:15;4.50;99.90
81488;DHT22;70897;52.464;13.428;2023-11-18T14:43:00;4.50;99.90
81488;DHT22;70897;52.464;13.428;2023-11-18T14:45:45;4.50;99.90
81488;DHT22;70897;52.464;13.428;2023-11-18T14:48:30;4.40;99.90
81488;DHT22;70897;52.464;13.428;2023-11-18T14:51:15;4.40;99.90
81488;DHT22;70897;52.464;13.428;2023-11-18T14:54:00;4.40;99.90
81488;DHT22;70897;52.464;13.428;2023-11-18T14:56:45;4.40;99.90
81488;DHT22;70897;52.464;13.428;2023-11-18T14:59:33;4.50;99.90
81488;DHT22;70897;52.464;13.428;2023-11-18T15:02:18;4.60;99.90
81488;DHT22;70897;52.464;13.428;2023-11-18T15:05:04;4.70;99.90
81488;DHT22;70897;52.464;13.428;2023-11-18T15:07:52;4.70;99.90
81488;DHT22;70897;52.464;13.428;2023-11-18T15:10:40;4.70;99.90
81488;DHT22;70897;52.464;13.428;2023-11-18T15:13:26;4.70;99.90
81488;DHT22;70897;52.464;13.428;2023-11-18T15:16:11;4.70;99.90
81488;DHT22;70897;52.464;13.428;2023-11-18T15:19:00;4.80;99.90
81488;DHT22;70897;52.464;13.428;2023-11-18T15:22:07;4.80;99.90
81488;DHT22;70897;52.464;13.428;2023-11-18T15:25:02;4.80;99.90
81488;DHT22;70897;52.464;13.428;2023-11-18T15:27:52;4.80;99.90
81488;DHT22;70897;52.464;13.428;2023-11-18T15:31:04;4.80;99.90
81488;DHT22;70897;52.464;13.428;2023-11-18T15:33:53;4.90;99.90
81488;DHT22;70897;52.464;13.428;2023-11-18T15:37:00;4.90;99.90
81488;DHT22;70897;52.464;13.428;2023-11-18T15:40:01;4.90;99.90
81488;DHT22;70897;52.464;13.428;2023-11-18T15:42:54;4.90;99.90
81488;DHT22;70897;52.464;13.428;2023-11-18T15:45:40;4.90;99.90
81488;DHT22;70897;52.464;13.428;2023-11-18T15:48:25;4.90;99.90
81488;DHT22;70897;52.464;13.428;2023-11-18T15:51:14;4.90;99.90
81488;DHT22;70897;52.464;13.428;2023-11-18T15:54:00;4.90;99.90
81488;DHT22;70897;52.464;13.428;2023-11-18T15:56:45;4.90;99.90
81488;DHT22;70897;52.464;13.428;2023-11-18T15:59:30;4.90;99.90
81488;DHT22;70897;52.464;13.428;2023-11-18T16:02:16;4.90;99.90
81488;DHT22;70897;52.464;13.428;2023-11-18T16:05:01;4.90;99.90
81488;DHT22;70897;52.464;13.428;2023-11-18T16:07:49;4.90;99.90
81488;DHT22;70897;52.464;13.428;2023-11-18T16:10:41;4.80;99.90
81488;DHT22;70897;52.464;13.428;2023-11-18T16:13:27;4.70;99.90
81488;DHT22;70897;52.464;13.428;2023-11-18T16:16:13;4.60;99.90
81488;DHT22;70897;52.464;13.428;2023-11-18T16:18:58;4.60;99.90
81488;DHT22;70897;52.464;13.428;2023-11-18T16:21:45;4.50;99.90
81488;DHT22;70897;52.464;13.428;2023-11-18T16:24:31;4.50;99.90
81488;DHT22;70897;52.464;13.428;2023-11-18T16:27:16;4.50;99.90
81488;DHT22;70897;52.464;13.428;2023-11-18T16:30:03;4.40;99.90
81488;DHT22;70897;52.464;13.428;2023-11-18T16:32:48;4.40;99.90
81488;DHT22;70897;52.464;13.428;2023-11-18T16:35:33;4.40;99.90
81488;DHT22;70897;52.464;13.428;2023-11-18T16:38:19;4.40;99.90
81488;DHT22;70897;52.464;13.428;2023-11-18T16:41:04;4.30;99.90
81488;DHT22;70897;52.464;13.428;2023-11-18T16:43:49;4.30;99.90
81488;DHT22;70897;52.464;13.428;2023-11-18T16:46:37;4.20;99.90
81488;DHT22;70897;52.464;13.428;2023-11-18T16:49:24;4.20;99.90
81488;DHT22;70897;52.464;13.428;2023-11-18T16:52:09;4.20;99.90
81488;DHT22;70897;52.464;13.428;2023-11-18T16:54:55;4.20;99.90
81488;DHT22;70897;52.464;13.428;2023-11-18T16:57:40;4.30;99.90
81488;DHT22;70897;52.464;13.428;2023-11-18T17:00:25;4.30;99.90
81488;DHT22;70897;52.464;13.428;2023-11-18T17:03:11;4.30;99.90
81488;DHT22;70897;52.464;13.428;2023-11-18T17:05:57;4.30;99.90
81488;DHT22;70897;52.464;13.428;2023-11-18T17:08:42;4.30;99.90
81488;DHT22;70897;52.464;13.428;2023-11-18T17:11:27;4.30;99.90
81488;DHT22;70897;52.464;13.428;2023-11-18T17:14:12;4.40;99.90
81488;DHT22;70897;52.464;13.428;2023-11-18T17:16:58;4.30;99.90
81488;DHT22;70897;52.464;13.428;2023-11-18T17:19:43;4.30;99.90
81488;DHT22;70897;52.464;13.428;2023-11-18T17:22:28;4.30;99.90
81488;DHT22;70897;52.464;13.428;2023-11-18T17:25:16;4.30;99.90
81488;DHT22;70897;52.464;13.428;2023-11-18T17:28:02;4.20;99.90
81488;DHT22;70897;52.464;13.428;2023-11-18T17:30:49;4.20;99.90
81488;DHT22;70897;52.464;13.428;2023-11-18T17:33:34;4.30;99.90
81488;DHT22;70897;52.464;13.428;2023-11-18T17:36:19;4.20;99.90
81488;DHT22;70897;52.464;13.428;2023-11-18T17:39:04;4.20;99.90
81488;DHT22;70897;52.464;13.428;2023-11-18T17:41:51;4.20;99.90
81488;DHT22;70897;52.464;13.428;2023-11-18T17:44:36;4.20;99.90
81488;DHT22;70897;52.464;13.428;2023-11-18T17:47:21;4.20;99.90
81488;DHT22;70897;52.464;13.428;2023-11-18T17:50:09;4.20;99.90
81488;DHT22;70897;52.464;13.428;2023-11-18T17:52:56;4.20;99.90